createdAt,value
2023-05-14T00:01:19.806Z,4.75
2023-05-14T00:03:48.216Z,6.13
2023-05-14T00:06:17.007Z,6.05
2023-05-14T00:08:45.419Z,5.00
2023-05-14T00:11:14.045Z,7.53
2023-05-14T00:13:42.535Z,5.72
2023-05-14T00:16:12.826Z,7.90
2023-05-14T00:18:41.501Z,8.10
2023-05-14T00:21:09.925Z,6.10
2023-05-14T00:23:38.519Z,8.60
2023-05-14T00:26:06.903Z,6.18
2023-05-14T00:28:35.434Z,7.57
2023-05-14T00:31:04.075Z,6.78
2023-05-14T00:33:33.836Z,5.97
2023-05-14T00:36:02.468Z,5.28
2023-05-14T00:38:30.820Z,7.75
2023-05-14T00:40:59.144Z,7.80
2023-05-14T00:43:27.654Z,5.25
2023-05-14T00:45:59.034Z,6.20
2023-05-14T00:48:27.699Z,6.28
2023-05-14T00:50:57.416Z,6.47
2023-05-14T00:53:26.293Z,7.28
2023-05-14T00:55:54.687Z,5.85
2023-05-14T00:58:23.055Z,6.45
2023-05-14T01:00:52.257Z,5.53
2023-05-14T01:03:20.813Z,10.30
2023-05-14T01:05:58.637Z,7.38
2023-05-14T01:08:33.802Z,6.85
2023-05-14T01:11:06.436Z,6.65
2023-05-14T01:13:40.120Z,6.70
2023-05-14T01:16:09.091Z,8.90
2023-05-14T01:18:37.560Z,6.35
2023-05-14T01:21:08.224Z,5.60
2023-05-14T01:23:38.180Z,8.38
2023-05-14T01:26:06.779Z,7.47
2023-05-14T01:28:35.342Z,7.97
2023-05-14T01:31:06.460Z,6.68
2023-05-14T01:33:35.284Z,10.20
2023-05-14T01:36:03.664Z,8.52
2023-05-14T01:38:34.333Z,6.97
2023-05-14T01:41:04.582Z,7.03
2023-05-14T01:43:33.291Z,7.75
2023-05-14T01:46:01.654Z,8.48
2023-05-14T01:48:30.353Z,8.70
2023-05-14T01:50:58.934Z,6.53
2023-05-14T01:53:27.327Z,10.30
2023-05-14T01:55:55.936Z,7.32
2023-05-14T01:58:25.780Z,9.45
2023-05-14T02:00:54.187Z,7.95
2023-05-14T02:03:22.984Z,5.65
2023-05-14T02:05:51.392Z,5.75
2023-05-14T02:08:19.993Z,6.40
2023-05-14T02:10:48.385Z,7.45
2023-05-14T02:13:17.857Z,7.03
2023-05-14T02:15:47.661Z,6.97
2023-05-14T02:18:16.250Z,7.35
2023-05-14T02:20:44.717Z,6.93
2023-05-14T02:23:13.049Z,6.93
2023-05-14T02:25:41.564Z,7.50
2023-05-14T02:28:10.087Z,7.28
2023-05-14T02:30:38.721Z,6.65
2023-05-14T02:33:08.681Z,7.07
2023-05-14T02:35:37.480Z,10.07
2023-05-14T02:38:09.089Z,7.18
2023-05-14T02:40:38.663Z,7.78
2023-05-14T02:43:07.325Z,7.82
2023-05-14T02:45:35.730Z,5.90
2023-05-14T02:48:04.223Z,7.05
2023-05-14T02:50:34.178Z,6.95
2023-05-14T02:53:02.850Z,6.32
2023-05-14T02:55:31.531Z,6.63
2023-05-14T02:57:59.894Z,7.13
2023-05-14T03:00:28.277Z,6.95
2023-05-14T03:02:57.261Z,5.55
2023-05-14T03:05:26.332Z,6.97
2023-05-14T03:07:56.180Z,7.90
2023-05-14T03:10:24.809Z,6.28
2023-05-14T03:12:53.965Z,5.68
2023-05-14T03:15:22.376Z,8.75
2023-05-14T03:17:50.985Z,7.25
2023-05-14T03:20:19.927Z,5.78
2023-05-14T03:22:48.335Z,6.80
2023-05-14T03:25:19.001Z,7.88
2023-05-14T03:27:47.437Z,5.65
2023-05-14T03:30:17.565Z,7.68
2023-05-14T03:32:46.126Z,7.28
2023-05-14T03:35:14.666Z,8.75
2023-05-14T03:37:43.217Z,6.47
2023-05-14T03:40:12.689Z,5.90
2023-05-14T03:42:42.438Z,6.50
2023-05-14T03:45:11.936Z,8.07
2023-05-14T03:47:40.354Z,5.20
2023-05-14T03:50:10.613Z,8.32
2023-05-14T03:52:39.173Z,7.35
2023-05-14T03:55:08.715Z,10.45
2023-05-14T03:57:37.245Z,7.55
2023-05-14T04:00:08.890Z,8.70
2023-05-14T04:02:37.393Z,7.75
2023-05-14T04:05:06.422Z,6.90
2023-05-14T04:07:34.784Z,5.45
2023-05-14T04:10:04.712Z,7.05
2023-05-14T04:12:33.259Z,7.10
2023-05-14T04:15:02.345Z,6.90
2023-05-14T04:17:33.006Z,6.30
2023-05-14T04:20:02.587Z,6.30
2023-05-14T04:22:31.260Z,6.68
2023-05-14T04:24:59.632Z,9.00
2023-05-14T04:27:28.224Z,6.80
2023-05-14T04:29:56.811Z,5.30
2023-05-14T04:32:25.979Z,6.63
2023-05-14T04:34:56.077Z,5.68
2023-05-14T04:37:24.431Z,7.78
2023-05-14T04:39:52.993Z,6.40
2023-05-14T04:42:21.339Z,8.07
2023-05-14T04:44:49.874Z,6.90
2023-05-14T04:47:18.295Z,7.30
2023-05-14T04:49:46.691Z,6.70
2023-05-14T04:52:16.525Z,5.43
2023-05-14T04:54:45.029Z,7.05
2023-05-14T04:57:13.890Z,6.70
2023-05-14T04:59:42.300Z,5.20
2023-05-14T05:02:10.853Z,6.00
2023-05-14T05:04:39.757Z,4.97
2023-05-14T05:07:08.211Z,6.75
2023-05-14T05:09:38.194Z,5.38
2023-05-14T05:12:07.970Z,5.38
2023-05-14T05:14:36.316Z,5.05
2023-05-14T05:17:04.914Z,4.60
2023-05-14T05:19:43.067Z,5.85
2023-05-14T05:22:12.683Z,7.05
2023-05-14T05:24:42.558Z,4.93
2023-05-14T05:27:10.879Z,5.30
2023-05-14T05:29:39.513Z,5.65
2023-05-14T05:32:09.111Z,5.93
2023-05-14T05:34:37.802Z,5.65
2023-05-14T05:37:06.428Z,6.00
2023-05-14T05:39:35.303Z,5.22
2023-05-14T05:42:07.179Z,4.90
2023-05-14T05:44:35.625Z,4.97
2023-05-14T05:47:04.397Z,5.22
2023-05-14T05:49:33.009Z,6.10
2023-05-14T05:52:01.392Z,5.53
2023-05-14T05:54:29.943Z,5.13
2023-05-14T05:56:58.425Z,4.85
2023-05-14T05:59:28.418Z,4.85
2023-05-14T06:01:56.830Z,4.78
2023-05-14T06:04:25.336Z,5.07
2023-05-14T06:06:53.920Z,5.40
2023-05-14T06:09:22.323Z,5.78
2023-05-14T06:11:51.042Z,4.45
2023-05-14T06:14:19.383Z,5.82
2023-05-14T06:16:49.186Z,4.70
2023-05-14T06:19:18.078Z,5.28
2023-05-14T06:21:46.598Z,4.63
2023-05-14T06:24:15.161Z,5.72
2023-05-14T06:26:43.536Z,4.15
2023-05-14T06:29:12.081Z,4.45
2023-05-14T06:31:40.697Z,4.80
2023-05-14T06:34:10.741Z,4.10
2023-05-14T06:36:39.237Z,4.10
2023-05-14T06:39:07.613Z,4.90
2023-05-14T06:41:36.032Z,4.40
2023-05-14T06:44:04.932Z,4.07
2023-05-14T06:46:33.307Z,7.13
2023-05-14T06:49:01.821Z,3.97
2023-05-14T06:51:32.640Z,4.53
2023-05-14T06:54:00.997Z,4.40
2023-05-14T06:56:29.568Z,5.03
2023-05-14T06:58:57.972Z,4.32
2023-05-14T07:01:27.141Z,5.05
2023-05-14T07:03:55.568Z,4.75
2023-05-14T07:06:24.095Z,4.40
2023-05-14T07:08:53.926Z,4.70
2023-05-14T07:11:23.181Z,4.10
2023-05-14T07:13:51.860Z,5.40
2023-05-14T07:16:20.252Z,6.97
2023-05-14T07:18:48.656Z,6.35
2023-05-14T07:21:17.188Z,6.75
2023-05-14T07:23:45.763Z,4.57
2023-05-14T07:26:15.886Z,3.85
2023-05-14T07:28:44.211Z,4.88
2023-05-14T07:31:12.889Z,4.15
2023-05-14T07:33:41.365Z,7.40
2023-05-14T07:36:10.121Z,3.95
2023-05-14T07:38:38.684Z,11.07
2023-05-14T07:41:07.876Z,10.68
2023-05-14T07:43:39.001Z,9.82
2023-05-14T07:46:07.671Z,6.38
2023-05-14T07:48:36.240Z,7.13
2023-05-14T07:51:04.968Z,8.35
2023-05-14T07:53:33.285Z,14.05
2023-05-14T07:56:02.023Z,8.60
2023-05-14T07:58:30.446Z,9.88
2023-05-14T08:01:01.542Z,14.65
2023-05-14T08:03:30.203Z,11.30
2023-05-14T08:05:58.632Z,7.28
2023-05-14T08:08:27.645Z,6.00
2023-05-14T08:10:56.104Z,4.15
2023-05-14T08:13:24.843Z,7.32
2023-05-14T08:15:53.289Z,8.13
2023-05-14T08:18:23.065Z,6.15
2023-05-14T08:20:51.644Z,5.82
2023-05-14T08:23:20.191Z,7.05
2023-05-14T08:25:48.668Z,7.85
2023-05-14T08:28:17.042Z,5.97
2023-05-14T08:30:45.956Z,3.92
2023-05-14T08:33:14.564Z,3.88
2023-05-14T08:35:44.370Z,4.30
2023-05-14T08:38:12.708Z,4.82
2023-05-14T08:40:41.069Z,8.77
2023-05-14T08:43:09.662Z,4.05
2023-05-14T08:45:38.126Z,4.32
2023-05-14T08:48:08.911Z,4.60
2023-05-14T08:50:37.647Z,5.53
2023-05-14T08:53:07.427Z,3.92
2023-05-14T08:55:36.119Z,4.25
2023-05-14T08:58:04.517Z,5.75
2023-05-14T09:00:33.087Z,4.22
2023-05-14T09:03:01.589Z,4.88
2023-05-14T09:05:30.046Z,5.40
2023-05-14T09:07:58.550Z,4.13
2023-05-14T09:10:28.434Z,6.10
2023-05-14T09:12:56.787Z,4.10
2023-05-14T09:15:25.226Z,3.63
2023-05-14T09:17:53.611Z,5.45
2023-05-14T09:20:22.909Z,4.13
2023-05-14T09:22:54.744Z,4.68
2023-05-14T09:25:29.108Z,4.35
2023-05-14T09:27:58.992Z,3.63
2023-05-14T09:30:27.794Z,5.03
2023-05-14T09:32:56.499Z,3.97
2023-05-14T09:35:25.808Z,4.35
2023-05-14T09:37:55.524Z,4.45
2023-05-14T09:40:25.405Z,3.63
2023-05-14T09:42:55.463Z,7.72
2023-05-14T09:45:24.218Z,3.97
2023-05-14T09:47:53.490Z,4.63
2023-05-14T09:50:22.432Z,4.10
2023-05-14T09:52:51.076Z,4.22
2023-05-14T09:55:20.532Z,3.83
2023-05-14T09:57:48.912Z,3.70
2023-05-14T10:00:19.769Z,3.60
2023-05-14T10:02:48.366Z,3.60
2023-05-14T10:05:17.845Z,6.80
2023-05-14T10:07:49.085Z,4.10
2023-05-14T10:10:20.365Z,3.90
2023-05-14T10:12:53.484Z,4.40
2023-05-14T10:15:26.867Z,3.72
2023-05-14T10:17:57.410Z,4.25
2023-05-14T10:20:26.696Z,3.85
2023-05-14T10:22:55.287Z,3.40
2023-05-14T10:25:24.139Z,4.05
2023-05-14T10:27:52.646Z,3.58
2023-05-14T10:30:24.450Z,4.13
2023-05-14T10:33:08.331Z,5.00
2023-05-14T10:36:05.168Z,4.78
2023-05-14T10:38:34.799Z,3.38
2023-05-14T10:41:04.295Z,4.00
2023-05-14T10:43:37.683Z,5.30
2023-05-14T10:46:07.946Z,3.40
2023-05-14T10:48:36.525Z,3.75
2023-05-14T10:51:05.092Z,3.33
2023-05-14T10:53:37.953Z,3.72
2023-05-14T10:56:07.570Z,4.07
2023-05-14T10:58:38.426Z,3.40
2023-05-14T11:01:09.284Z,3.60
2023-05-14T11:03:42.419Z,3.80
2023-05-14T11:06:11.854Z,3.65
2023-05-14T11:08:40.591Z,3.58
2023-05-14T11:11:10.420Z,3.30
2023-05-14T11:13:38.869Z,3.70
2023-05-14T11:16:21.762Z,3.55
2023-05-14T11:18:55.855Z,3.83
2023-05-14T11:21:24.482Z,3.53
2023-05-14T11:23:52.902Z,3.10
2023-05-14T11:26:21.827Z,7.50
2023-05-14T11:28:50.285Z,3.15
2023-05-14T11:31:20.239Z,3.38
2023-05-14T11:33:48.991Z,3.35
2023-05-14T11:36:17.493Z,3.22
2023-05-14T11:38:50.841Z,3.40
2023-05-14T11:41:21.096Z,2.60
2023-05-14T11:43:49.496Z,3.38
2023-05-14T11:46:20.026Z,5.72
2023-05-14T11:48:49.061Z,2.85
2023-05-14T11:51:17.532Z,3.42
2023-05-14T11:53:47.608Z,3.30
2023-05-14T11:56:16.309Z,3.13
2023-05-14T11:58:50.169Z,3.38
2023-05-14T12:01:19.957Z,2.70
2023-05-14T12:03:48.590Z,3.20
2023-05-14T12:06:17.084Z,3.42
2023-05-14T12:08:45.940Z,3.20
2023-05-14T12:11:14.566Z,3.10
2023-05-14T12:13:42.941Z,3.22
2023-05-14T12:16:11.912Z,3.85
2023-05-14T12:18:41.742Z,2.63
2023-05-14T12:21:12.235Z,3.30
2023-05-14T12:23:40.753Z,2.75
2023-05-14T12:26:10.345Z,3.17
2023-05-14T12:28:43.492Z,8.57
2023-05-14T12:31:12.371Z,7.28
2023-05-14T12:33:42.218Z,3.75
2023-05-14T12:36:21.167Z,2.92
2023-05-14T12:38:50.489Z,5.30
2023-05-14T12:41:19.101Z,10.20
2023-05-14T12:43:48.598Z,4.65
2023-05-14T12:46:17.323Z,4.57
2023-05-14T12:48:47.319Z,3.45
2023-05-14T12:51:15.870Z,2.55
2023-05-14T12:53:44.575Z,3.13
2023-05-14T12:56:13.108Z,2.85
2023-05-14T12:58:41.787Z,3.50
2023-05-14T13:01:10.631Z,3.38
2023-05-14T13:03:39.297Z,3.17
2023-05-14T13:06:09.384Z,2.75
2023-05-14T13:08:38.079Z,2.38
2023-05-14T13:11:06.769Z,2.00
2023-05-14T13:13:35.121Z,2.58
2023-05-14T13:16:03.746Z,3.65
2023-05-14T13:18:32.272Z,3.00
2023-05-14T13:21:00.713Z,2.22
2023-05-14T13:23:30.603Z,2.00
2023-05-14T13:25:58.984Z,1.95
2023-05-14T13:28:27.560Z,2.10
2023-05-14T13:31:09.486Z,1.77
2023-05-14T13:33:39.603Z,3.47
2023-05-14T13:36:09.283Z,2.40
2023-05-14T13:38:39.171Z,2.40
2023-05-14T13:41:07.675Z,1.88
2023-05-14T13:43:36.658Z,1.90
2023-05-14T13:46:06.148Z,2.20
2023-05-14T13:48:34.574Z,2.00
2023-05-14T13:51:02.957Z,1.83
2023-05-14T13:53:31.716Z,2.17
2023-05-14T13:56:01.911Z,1.70
2023-05-14T13:58:30.546Z,2.08
2023-05-14T14:00:58.954Z,2.00
2023-05-14T14:03:27.413Z,3.80
2023-05-14T14:05:55.860Z,2.22
2023-05-14T14:08:24.699Z,2.33
2023-05-14T14:10:55.376Z,2.08
2023-05-14T14:13:25.677Z,2.20
2023-05-14T14:15:54.199Z,3.33
2023-05-14T14:18:22.727Z,3.17
2023-05-14T14:20:51.095Z,2.40
2023-05-14T14:23:19.665Z,2.25
2023-05-14T14:25:48.571Z,2.60
2023-05-14T14:28:17.237Z,2.67
2023-05-14T14:30:47.257Z,2.15
2023-05-14T14:33:15.838Z,2.83
2023-05-14T14:35:45.053Z,2.03
2023-05-14T14:38:14.180Z,2.80
2023-05-14T14:40:42.765Z,2.35
2023-05-14T14:43:11.279Z,2.22
2023-05-14T14:45:39.765Z,2.08
2023-05-14T14:48:31.730Z,2.33
2023-05-14T14:51:00.173Z,4.32
2023-05-14T14:53:28.633Z,2.13
2023-05-14T14:55:57.167Z,2.10
2023-05-14T14:58:26.127Z,2.72
2023-05-14T15:00:55.583Z,4.30
2023-05-14T15:03:24.241Z,4.18
2023-05-14T15:05:54.367Z,3.80
2023-05-14T15:08:26.762Z,2.10
2023-05-14T15:10:55.500Z,2.08
2023-05-14T15:13:24.890Z,2.13
2023-05-14T15:15:53.402Z,2.20
2023-05-14T15:18:21.861Z,1.90
2023-05-14T15:20:50.871Z,2.28
2023-05-14T15:23:20.675Z,2.25
2023-05-14T15:25:49.718Z,3.05
2023-05-14T15:28:18.326Z,2.42
2023-05-14T15:30:48.436Z,1.95
2023-05-14T15:33:19.340Z,3.03
2023-05-14T15:35:48.118Z,1.92
2023-05-14T15:38:16.811Z,4.13
2023-05-14T15:40:46.655Z,2.20
2023-05-14T15:43:15.158Z,2.03
2023-05-14T15:45:45.708Z,1.92
2023-05-14T15:48:14.209Z,2.03
2023-05-14T15:50:42.988Z,2.00
2023-05-14T15:53:11.381Z,2.03
2023-05-14T15:55:39.851Z,1.73
2023-05-14T15:58:10.037Z,2.58
2023-05-14T16:00:38.405Z,2.00
2023-05-14T16:03:07.387Z,2.15
2023-05-14T16:05:36.582Z,2.15
2023-05-14T16:08:05.447Z,1.80
2023-05-14T16:10:34.053Z,2.03
2023-05-14T16:13:02.459Z,2.10
2023-05-14T16:15:32.421Z,2.88
2023-05-14T16:18:01.659Z,2.00
2023-05-14T16:20:30.343Z,2.63
2023-05-14T16:22:58.732Z,2.25
2023-05-14T16:25:27.431Z,2.08
2023-05-14T16:27:56.165Z,2.10
2023-05-14T16:30:24.780Z,2.10
2023-05-14T16:32:55.123Z,2.53
2023-05-14T16:35:23.596Z,2.80
2023-05-14T16:37:52.101Z,3.88
2023-05-14T16:40:21.956Z,2.30
2023-05-14T16:42:51.169Z,2.10
2023-05-14T16:45:19.649Z,2.17
2023-05-14T16:47:48.171Z,2.97
2023-05-14T16:50:18.424Z,3.05
2023-05-14T16:52:46.831Z,1.80
2023-05-14T16:55:15.596Z,3.45
2023-05-14T16:57:45.044Z,2.40
2023-05-14T17:00:15.410Z,2.75
2023-05-14T17:02:44.007Z,2.45
2023-05-14T17:05:12.475Z,2.47
2023-05-14T17:07:42.394Z,2.30
2023-05-14T17:10:12.013Z,2.28
2023-05-14T17:12:40.447Z,2.45
2023-05-14T17:15:10.925Z,1.92
2023-05-14T17:17:39.447Z,2.03
2023-05-14T17:20:09.269Z,2.55
2023-05-14T17:22:38.130Z,7.45
2023-05-14T17:25:10.169Z,4.45
2023-05-14T17:27:38.773Z,8.35
2023-05-14T17:30:09.321Z,18.15
2023-05-14T17:32:38.156Z,11.65
2023-05-14T17:35:09.775Z,7.90
2023-05-14T17:37:38.177Z,9.25
2023-05-14T17:40:10.134Z,3.03
2023-05-14T17:42:38.556Z,7.18
2023-05-14T17:45:08.966Z,5.38
2023-05-14T17:47:37.733Z,6.30
2023-05-14T17:50:07.776Z,6.60
2023-05-14T17:52:36.899Z,5.70
2023-05-14T17:55:07.592Z,3.47
2023-05-14T17:57:36.076Z,3.40
2023-05-14T18:00:05.152Z,10.60
2023-05-14T18:02:33.605Z,6.90
2023-05-14T18:05:03.361Z,5.53
2023-05-14T18:07:31.845Z,3.55
2023-05-14T18:10:00.414Z,4.45
2023-05-14T18:12:30.431Z,5.07
2023-05-14T18:14:58.914Z,7.32
2023-05-14T18:17:27.780Z,5.43
2023-05-14T18:19:56.216Z,3.45
2023-05-14T18:22:24.846Z,8.38
2023-05-14T18:24:53.566Z,10.45
2023-05-14T18:27:22.046Z,6.68
2023-05-14T18:29:53.495Z,7.35
2023-05-14T18:32:22.259Z,2.95
2023-05-14T18:34:51.059Z,3.25
2023-05-14T18:37:19.618Z,3.33
2023-05-14T18:39:48.169Z,3.28
2023-05-14T18:42:16.887Z,2.88
2023-05-14T18:44:45.355Z,3.65
2023-05-14T18:47:15.605Z,3.13
2023-05-14T18:49:44.112Z,7.13
2023-05-14T18:52:12.637Z,4.20
2023-05-14T18:54:41.089Z,3.60
2023-05-14T18:57:09.470Z,4.97
2023-05-14T18:59:38.020Z,4.15
2023-05-14T19:02:06.862Z,5.68
2023-05-14T19:04:50.555Z,5.15
2023-05-14T19:07:20.100Z,4.32
2023-05-14T19:09:48.675Z,3.33
2023-05-14T19:12:17.335Z,5.72
2023-05-14T19:14:45.854Z,4.13
2023-05-14T19:17:14.279Z,3.70
2023-05-14T19:19:44.127Z,3.10
2023-05-14T19:22:12.768Z,3.58
2023-05-14T19:24:41.276Z,4.00
2023-05-14T19:27:10.145Z,5.63
2023-05-14T19:29:38.702Z,4.13
2023-05-14T19:32:09.166Z,3.83
2023-05-14T19:34:37.875Z,4.20
2023-05-14T19:37:07.949Z,3.92
2023-05-14T19:39:36.694Z,5.57
2023-05-14T19:42:05.465Z,3.20
2023-05-14T19:44:34.048Z,4.30
2023-05-14T19:47:02.543Z,3.70
2023-05-14T19:49:31.087Z,3.40
2023-05-14T19:51:59.508Z,3.38
2023-05-14T19:54:29.468Z,3.70
2023-05-14T19:56:57.872Z,4.72
2023-05-14T19:59:26.590Z,5.07
2023-05-14T20:01:55.120Z,3.08
2023-05-14T20:04:23.557Z,3.78
2023-05-14T20:06:52.787Z,4.15
2023-05-14T20:09:21.255Z,3.50
2023-05-14T20:11:51.249Z,3.33
2023-05-14T20:14:19.706Z,3.78
2023-05-14T20:16:50.828Z,3.85
2023-05-14T20:19:21.435Z,2.88
2023-05-14T20:21:49.978Z,3.22
2023-05-14T20:24:18.507Z,3.58
2023-05-14T20:26:46.879Z,3.20
2023-05-14T20:29:16.927Z,3.17
2023-05-14T20:31:45.375Z,3.17
2023-05-14T20:34:13.799Z,3.72
2023-05-14T20:36:42.574Z,3.30
2023-05-14T20:39:11.826Z,9.13
2023-05-14T20:41:40.260Z,3.42
2023-05-14T20:44:08.749Z,3.40
2023-05-14T20:46:38.930Z,3.53
2023-05-14T20:49:07.462Z,3.28
2023-05-14T20:51:35.908Z,3.67
2023-05-14T20:54:04.374Z,3.60
2023-05-14T20:56:32.813Z,3.17
2023-05-14T20:59:01.459Z,4.70
2023-05-14T21:01:30.026Z,2.90
2023-05-14T21:04:00.079Z,2.75
2023-05-14T21:06:28.635Z,3.67
2023-05-14T21:08:57.235Z,3.58
2023-05-14T21:11:25.706Z,3.22
2023-05-14T21:13:54.454Z,3.00
2023-05-14T21:16:23.233Z,3.30
2023-05-14T21:18:51.806Z,3.28
2023-05-14T21:21:21.720Z,3.55
2023-05-14T21:23:50.492Z,3.45
2023-05-14T21:26:19.036Z,2.97
2023-05-14T21:28:47.488Z,2.97
2023-05-14T21:31:16.149Z,3.25
2023-05-14T21:33:44.635Z,3.10
2023-05-14T21:36:13.029Z,8.82
2023-05-14T21:38:42.941Z,3.30
2023-05-14T21:41:11.475Z,3.00
2023-05-14T21:43:40.743Z,3.30
2023-05-14T21:46:09.214Z,3.58
2023-05-14T21:48:37.783Z,3.47
2023-05-14T21:51:07.599Z,3.58
2023-05-14T21:53:35.981Z,3.40
2023-05-14T21:56:08.387Z,3.47
2023-05-14T21:58:37.220Z,3.97
2023-05-14T22:01:05.846Z,3.72
2023-05-14T22:03:34.528Z,3.58
2023-05-14T22:06:02.997Z,3.42
2023-05-14T22:08:32.394Z,4.32
2023-05-14T22:11:00.768Z,3.20
2023-05-14T22:13:30.793Z,4.45
2023-05-14T22:16:11.660Z,4.35
2023-05-14T22:18:41.149Z,3.80
2023-05-14T22:21:09.653Z,3.80
2023-05-14T22:23:38.115Z,3.25
2023-05-14T22:26:06.777Z,3.70
2023-05-14T22:28:39.839Z,3.58
2023-05-14T22:31:08.606Z,4.53
2023-05-14T22:33:37.409Z,4.35
2023-05-14T22:36:07.054Z,3.70
2023-05-14T22:38:35.557Z,4.45
2023-05-14T22:41:04.077Z,3.30
2023-05-14T22:43:32.502Z,3.60
2023-05-14T22:46:02.709Z,4.45
2023-05-14T22:48:31.380Z,4.18
2023-05-14T22:50:59.760Z,4.43
2023-05-14T22:53:28.187Z,3.55
2023-05-14T22:55:56.604Z,3.63
2023-05-14T22:58:25.129Z,3.58
2023-05-14T23:00:53.802Z,3.50
2023-05-14T23:03:23.569Z,3.35
2023-05-14T23:05:52.256Z,3.30
2023-05-14T23:08:20.607Z,3.95
2023-05-14T23:10:48.960Z,3.42
2023-05-14T23:13:18.051Z,3.53
2023-05-14T23:15:46.428Z,3.33
2023-05-14T23:18:15.113Z,3.60
2023-05-14T23:20:44.939Z,4.03
2023-05-14T23:23:13.525Z,3.35
2023-05-14T23:25:41.882Z,3.58
2023-05-14T23:28:10.854Z,3.40
2023-05-14T23:30:41.986Z,3.55
2023-05-14T23:33:10.470Z,2.90
2023-05-14T23:35:39.649Z,3.28
2023-05-14T23:38:09.407Z,3.13
2023-05-14T23:40:38.219Z,4.00
2023-05-14T23:43:06.886Z,2.90
2023-05-14T23:45:35.254Z,3.25
2023-05-14T23:48:04.192Z,2.95
2023-05-14T23:50:32.615Z,2.90
2023-05-14T23:53:00.966Z,2.80
2023-05-14T23:55:31.149Z,3.28
2023-05-14T23:57:59.581Z,3.05
